createdAt,value
2018-01-27T00:00:39.878Z,90.05
2018-01-27T00:01:49.932Z,90.05
2018-01-27T00:02:59.738Z,89.95
2018-01-27T00:04:09.818Z,89.76
2018-01-27T00:05:19.875Z,89.95
2018-01-27T00:06:29.683Z,89.86
2018-01-27T00:07:39.751Z,90.14
2018-01-27T00:08:49.819Z,89.76
2018-01-27T00:09:59.896Z,89.86
2018-01-27T00:11:09.984Z,89.86
2018-01-27T00:12:19.768Z,90.05
2018-01-27T00:13:29.843Z,89.38
2018-01-27T00:14:39.965Z,89.86
2018-01-27T00:15:50.005Z,90.14
2018-01-27T00:17:01.505Z,90.14
2018-01-27T00:18:13.207Z,89.86
2018-01-27T00:19:23.256Z,89.86
2018-01-27T00:20:33.353Z,90.05
2018-01-27T00:21:43.415Z,89.95
2018-01-27T00:22:53.206Z,90.14
2018-01-27T00:24:03.273Z,90.14
2018-01-27T00:25:13.062Z,89.95
2018-01-27T00:26:22.855Z,89.86
2018-01-27T00:27:32.896Z,89.95
2018-01-27T00:28:42.945Z,89.95
2018-01-27T00:29:52.737Z,89.76
2018-01-27T00:31:02.801Z,89.86
2018-01-27T00:32:12.855Z,89.86
2018-01-27T00:33:22.918Z,90.05
2018-01-27T00:34:32.989Z,89.57
2018-01-27T00:35:42.790Z,89.76
2018-01-27T00:36:52.832Z,90.05
2018-01-27T00:38:02.878Z,89.86
2018-01-27T00:39:12.690Z,89.95
2018-01-27T00:40:22.748Z,89.76
2018-01-27T00:41:32.822Z,89.86
2018-01-27T00:42:42.853Z,89.76
2018-01-27T00:43:52.947Z,89.67
2018-01-27T00:45:03.006Z,90.05
2018-01-27T00:46:13.101Z,89.57
2018-01-27T00:47:23.146Z,89.86
2018-01-27T00:48:33.224Z,89.67
2018-01-27T00:49:43.316Z,89.57
2018-01-27T00:50:53.353Z,89.95
2018-01-27T00:52:03.155Z,90.05
2018-01-27T00:53:13.235Z,89.47
2018-01-27T00:54:23.276Z,89.95
2018-01-27T00:55:33.360Z,89.95
2018-01-27T00:56:43.393Z,90.05
2018-01-27T00:57:53.194Z,90.23
2018-01-27T00:59:02.986Z,90.05
2018-01-27T01:00:13.032Z,90.05
2018-01-27T01:01:23.083Z,90.05
2018-01-27T01:02:33.126Z,89.86
2018-01-27T01:03:44.497Z,89.86
2018-01-27T01:04:54.542Z,89.67
2018-01-27T01:06:04.331Z,89.67
2018-01-27T01:07:14.177Z,89.67
2018-01-27T01:08:25.584Z,89.76
2018-01-27T01:09:35.626Z,89.76
2018-01-27T01:10:45.703Z,90.05
2018-01-27T01:11:56.566Z,89.76
2018-01-27T01:13:06.457Z,89.72
2018-01-27T01:14:16.797Z,89.76
2018-01-27T01:15:26.573Z,90.05
2018-01-27T01:16:36.852Z,89.67
2018-01-27T01:17:46.409Z,89.81
2018-01-27T01:18:56.624Z,89.86
2018-01-27T01:20:06.675Z,89.76
2018-01-27T01:21:16.460Z,89.86
2018-01-27T01:22:26.528Z,89.95
2018-01-27T01:23:36.383Z,90.14
2018-01-27T01:24:46.470Z,90.23
2018-01-27T01:25:56.539Z,89.76
2018-01-27T01:27:06.323Z,89.72
2018-01-27T01:28:16.371Z,89.76
2018-01-27T01:29:26.428Z,90.23
2018-01-27T01:30:36.237Z,89.76
2018-01-27T01:31:46.286Z,89.86
2018-01-27T01:32:56.067Z,89.95
2018-01-27T01:34:06.109Z,89.95
2018-01-27T01:35:16.164Z,89.86
2018-01-27T01:36:26.196Z,89.95
2018-01-27T01:37:36.238Z,89.72
2018-01-27T01:38:46.291Z,89.72
2018-01-27T01:39:56.334Z,89.81
2018-01-27T01:41:06.393Z,89.81
2018-01-27T01:42:16.241Z,89.81
2018-01-27T01:43:26.032Z,89.81
2018-01-27T01:44:36.102Z,89.62
2018-01-27T01:45:46.161Z,89.72
2018-01-27T01:46:56.223Z,89.53
2018-01-27T01:48:06.027Z,89.62
2018-01-27T01:49:16.068Z,89.62
2018-01-27T01:50:25.853Z,89.53
2018-01-27T01:51:35.905Z,90
2018-01-27T01:52:45.694Z,89.53
2018-01-27T01:53:55.483Z,89.81
2018-01-27T01:55:05.270Z,89.81
2018-01-27T01:56:15.321Z,89.72
2018-01-27T01:57:25.368Z,89.81
2018-01-27T01:58:35.518Z,89.62
2018-01-27T01:59:45.556Z,89.72
2018-01-27T02:00:55.616Z,89.62
2018-01-27T02:02:05.669Z,89.62
2018-01-27T02:03:15.447Z,89.62
2018-01-27T02:04:25.500Z,89.62
2018-01-27T02:05:35.275Z,89.81
2018-01-27T02:06:45.328Z,89.81
2018-01-27T02:07:55.376Z,89.9
2018-01-27T02:09:05.429Z,89.81
2018-01-27T02:10:15.497Z,89.62
2018-01-27T02:11:25.268Z,89.81
2018-01-27T02:12:35.315Z,89.62
2018-01-27T02:13:45.083Z,90
2018-01-27T02:14:55.154Z,89.62
2018-01-27T02:16:04.955Z,89.81
2018-01-27T02:17:14.474Z,89.9
2018-01-27T02:18:24.505Z,89.62
2018-01-27T02:19:34.575Z,89.9
2018-01-27T02:20:44.625Z,90
2018-01-27T02:21:54.419Z,89.81
2018-01-27T02:23:04.212Z,89.81
2018-01-27T02:24:14.270Z,89.62
2018-01-27T02:25:25.576Z,89.9
2018-01-27T02:26:36.779Z,89.81
2018-01-27T02:27:46.832Z,89.62
2018-01-27T02:28:56.895Z,89.62
2018-01-27T02:30:06.936Z,89.67
2018-01-27T02:31:16.976Z,89.53
2018-01-27T02:32:27.054Z,89.62
2018-01-27T02:33:37.107Z,89.81
2018-01-27T02:34:46.898Z,89.62
2018-01-27T02:35:56.952Z,89.62
2018-01-27T02:37:07.009Z,89.62
2018-01-27T02:38:17.047Z,89.81
2018-01-27T02:39:26.841Z,89.81
2018-01-27T02:40:36.632Z,89.72
2018-01-27T02:41:46.704Z,89.62
2018-01-27T02:42:57.544Z,90
2018-01-27T02:44:07.326Z,89.62
2018-01-27T02:45:17.111Z,90
2018-01-27T02:46:27.160Z,89.62
2018-01-27T02:47:37.213Z,89.81
2018-01-27T02:48:47.265Z,89.72
2018-01-27T02:49:57.058Z,90
2018-01-27T02:51:07.168Z,89.72
2018-01-27T02:52:17.204Z,90.09
2018-01-27T02:53:27.253Z,89.81
2018-01-27T02:54:37.035Z,89.81
2018-01-27T02:55:47.093Z,89.62
2018-01-27T02:56:57.136Z,89.9
2018-01-27T02:58:06.925Z,89.9
2018-01-27T02:59:16.979Z,89.62
2018-01-27T03:00:26.802Z,89.72
2018-01-27T03:01:36.844Z,89.9
2018-01-27T03:02:46.648Z,89.81
2018-01-27T03:34:57.359Z,85.17
2018-01-27T03:36:07.381Z,86.41
2018-01-27T03:37:17.152Z,86.98
2018-01-27T03:38:26.925Z,87.73
2018-01-27T03:39:36.951Z,88.78
2018-01-27T03:40:46.980Z,89.63
2018-01-27T03:41:57.015Z,90.39
2018-01-27T03:43:07.054Z,90.1
2018-01-27T03:44:16.834Z,90.67
2018-01-27T03:45:26.870Z,90.48
2018-01-27T03:46:36.671Z,90.43
2018-01-27T03:47:46.708Z,90.53
2018-01-27T03:48:57.841Z,90.43
2018-01-27T03:50:07.890Z,90.62
2018-01-27T03:51:17.933Z,90.72
2018-01-27T03:52:28.071Z,90.48
2018-01-27T03:53:37.848Z,90.95
2018-01-27T03:54:47.898Z,90.19
2018-01-27T03:55:57.934Z,90.38
2018-01-27T03:57:07.717Z,90
2018-01-27T03:58:17.509Z,90.19
2018-01-27T03:59:27.556Z,90.1
2018-01-27T04:00:37.594Z,90
2018-01-27T04:01:47.653Z,90.1
2018-01-27T04:02:57.696Z,89.91
2018-01-27T04:04:07.473Z,89.76
2018-01-27T04:05:17.520Z,90.43
2018-01-27T04:06:27.305Z,89.76
2018-01-27T04:07:37.075Z,89.76
2018-01-27T04:08:47.128Z,89.76
2018-01-27T04:09:57.174Z,89.95
2018-01-27T04:11:06.954Z,90.05
2018-01-27T04:12:16.752Z,89.86
2018-01-27T04:13:26.537Z,89.67
2018-01-27T04:14:36.572Z,89.58
2018-01-27T04:15:46.354Z,89.39
2018-01-27T04:16:56.403Z,89.86
2018-01-27T04:18:06.186Z,89.48
2018-01-27T04:19:16.224Z,89.86
2018-01-27T04:20:26.277Z,89.48
2018-01-27T04:21:36.117Z,89.86
2018-01-27T04:22:46.154Z,89.95
2018-01-27T04:23:56.199Z,89.95
2018-01-27T04:25:06.250Z,89.48
2018-01-27T04:26:16.299Z,89.39
2018-01-27T04:27:26.337Z,89.76
2018-01-27T04:28:36.197Z,89.58
2018-01-27T04:29:46.251Z,89.58
2018-01-27T04:30:56.347Z,89.58
2018-01-27T04:32:06.389Z,89.67
2018-01-27T04:33:16.182Z,89.67
2018-01-27T04:34:25.978Z,89.58
2018-01-27T04:35:36.025Z,89.67
2018-01-27T04:36:46.066Z,89.67
2018-01-27T04:37:55.593Z,89.67
2018-01-27T04:39:05.426Z,89.67
2018-01-27T04:40:15.198Z,89.76
2018-01-27T04:41:25.259Z,89.67
2018-01-27T04:42:35.068Z,89.58
2018-01-27T04:43:45.169Z,89.86
2018-01-27T04:44:55.240Z,89.81
2018-01-27T04:46:05.290Z,89.62
2018-01-27T04:47:15.330Z,90
2018-01-27T04:48:25.379Z,89.81
2018-01-27T04:49:35.160Z,89.81
2018-01-27T04:50:45.213Z,89.72
2018-01-27T04:51:54.998Z,89.81
2018-01-27T04:53:05.022Z,90
2018-01-27T04:54:15.063Z,89.76
2018-01-27T04:55:25.116Z,89.9
2018-01-27T04:56:34.903Z,89.76
2018-01-27T04:57:44.692Z,89.58
2018-01-27T04:58:54.743Z,89.58
2018-01-27T05:00:04.527Z,89.62
2018-01-27T05:01:14.573Z,89.53
2018-01-27T05:02:24.760Z,89.72
2018-01-27T05:03:34.788Z,89.81
2018-01-27T05:04:44.839Z,89.67
2018-01-27T05:05:54.892Z,89.9
2018-01-27T05:07:06.281Z,89.58
2018-01-27T05:08:16.073Z,89.53
2018-01-27T05:09:25.876Z,89.62
2018-01-27T05:10:35.903Z,89.58
2018-01-27T05:11:45.939Z,89.81
2018-01-27T05:12:55.776Z,89.76
2018-01-27T05:14:05.478Z,90.05
2018-01-27T05:15:15.518Z,89.81
2018-01-27T05:16:25.557Z,90.19
2018-01-27T05:17:35.598Z,90
2018-01-27T05:18:45.431Z,89.81
2018-01-27T05:19:55.476Z,90.09
2018-01-27T05:21:05.535Z,90.09
2018-01-27T05:22:15.595Z,90
2018-01-27T05:23:25.631Z,89.72
2018-01-27T05:24:35.658Z,90.09
2018-01-27T05:25:45.700Z,90
2018-01-27T05:26:55.482Z,90.09
2018-01-27T05:28:05.549Z,89.72
2018-01-27T05:29:15.601Z,89.9
2018-01-27T05:30:25.715Z,89.81
2018-01-27T05:31:35.508Z,89.81
2018-01-27T05:32:45.550Z,90
2018-01-27T05:33:55.338Z,90
2018-01-27T05:35:05.366Z,89.81
2018-01-27T05:36:15.145Z,89.81
2018-01-27T05:37:25.247Z,89.81
2018-01-27T05:38:35.294Z,89.81
2018-01-27T05:39:44.836Z,90.09
2018-01-27T05:40:54.643Z,90.09
2018-01-27T05:42:04.430Z,89.9
2018-01-27T05:43:14.461Z,89.9
2018-01-27T05:44:24.513Z,89.9
2018-01-27T05:45:34.570Z,89.81
2018-01-27T05:46:44.611Z,90.09
2018-01-27T05:47:54.659Z,89.81
2018-01-27T05:49:04.765Z,89.81
2018-01-27T05:50:14.826Z,89.62
2018-01-27T05:51:24.882Z,89.9
2018-01-27T05:52:34.924Z,89.9
2018-01-27T05:53:44.973Z,89.81
2018-01-27T05:54:55.026Z,90.09
2018-01-27T05:56:05.061Z,89.72
2018-01-27T05:57:14.856Z,89.58
2018-01-27T05:58:24.914Z,89.62
2018-01-27T05:59:34.711Z,89.62
2018-01-27T06:00:44.752Z,89.53
2018-01-27T06:01:54.807Z,89.72
2018-01-27T06:03:04.850Z,89.81
2018-01-27T06:04:14.897Z,89.62
2018-01-27T06:05:24.689Z,89.72
2018-01-27T06:06:34.739Z,89.81
2018-01-27T06:07:44.778Z,89.72
2018-01-27T06:08:54.834Z,89.62
2018-01-27T06:10:04.363Z,89.9
2018-01-27T06:11:14.208Z,89.81
2018-01-27T06:12:24.240Z,89.81
2018-01-27T06:13:34.300Z,89.81
2018-01-27T06:14:44.351Z,89.72
2018-01-27T06:15:54.415Z,89.81
2018-01-27T06:17:04.467Z,89.81
2018-01-27T06:18:15.480Z,89.81
2018-01-27T06:19:25.312Z,89.81
2018-01-27T06:20:35.360Z,89.81
2018-01-27T06:21:45.403Z,89.62
2018-01-27T06:22:55.431Z,89.81
2018-01-27T06:24:05.268Z,90.09
2018-01-27T06:25:15.324Z,89.9
2018-01-27T06:26:25.377Z,89.9
2018-01-27T06:27:34.887Z,89.81
2018-01-27T06:28:44.924Z,89.72
2018-01-27T06:29:55.031Z,89.62
2018-01-27T06:31:05.069Z,89.72
2018-01-27T06:32:15.106Z,89.62
2018-01-27T06:33:24.881Z,89.62
2018-01-27T06:34:34.933Z,89.62
2018-01-27T06:35:45.015Z,89.9
2018-01-27T06:36:54.811Z,89.9
2018-01-27T06:38:04.590Z,89.72
2018-01-27T06:39:14.650Z,89.81
2018-01-27T06:40:24.441Z,89.72
2018-01-27T06:41:34.229Z,89.81
2018-01-27T06:42:44.017Z,89.62
2018-01-27T06:43:54.055Z,89.72
2018-01-27T06:45:04.116Z,89.62
2018-01-27T06:46:14.182Z,89.72
2018-01-27T06:47:24.298Z,89.72
2018-01-27T06:48:34.410Z,89.62
2018-01-27T06:49:44.457Z,89.81
2018-01-27T06:50:54.253Z,89.81
2018-01-27T06:52:04.055Z,89.9
2018-01-27T06:53:13.594Z,89.81
2018-01-27T06:54:23.652Z,89.62
2018-01-27T06:55:33.706Z,89.72
2018-01-27T06:56:44.347Z,90.19
2018-01-27T06:57:54.129Z,89.81
2018-01-27T06:59:04.178Z,89.9
2018-01-27T07:00:14.231Z,90
2018-01-27T07:01:23.998Z,89.72
2018-01-27T07:02:33.785Z,89.9
2018-01-27T07:03:43.819Z,89.81
2018-01-27T07:04:53.908Z,89.9
2018-01-27T07:06:03.941Z,89.81
2018-01-27T07:07:13.227Z,90
2018-01-27T07:08:23.269Z,89.62
2018-01-27T07:09:32.782Z,89.43
2018-01-27T07:10:42.621Z,89.14
2018-01-27T07:11:52.659Z,89.53
2018-01-27T07:13:02.702Z,89.62
2018-01-27T07:14:12.492Z,89.9
2018-01-27T07:15:22.279Z,89.81
2018-01-27T07:16:32.067Z,89.67
2018-01-27T07:17:42.117Z,89.57
2018-01-27T07:18:52.171Z,89.81
2018-01-27T07:20:02.225Z,90
2018-01-27T07:21:12.016Z,89.72
2018-01-27T07:22:22.109Z,89.9
2018-01-27T07:23:31.907Z,89.81
2018-01-27T07:24:41.975Z,89.9
2018-01-27T07:25:51.498Z,89.81
2018-01-27T07:27:01.297Z,89.9
2018-01-27T07:28:11.203Z,90
2018-01-27T07:29:20.736Z,89.95
2018-01-27T07:30:30.775Z,90
2018-01-27T07:31:40.561Z,89.86
2018-01-27T07:32:50.327Z,89.9
2018-01-27T07:34:00.387Z,90.09
2018-01-27T07:35:10.424Z,90
2018-01-27T07:36:19.976Z,89.9
2018-01-27T07:37:29.787Z,89.72
2018-01-27T07:38:39.574Z,89.86
2018-01-27T07:39:49.345Z,89.76
2018-01-27T07:40:59.138Z,90.05
2018-01-27T07:42:08.905Z,89.86
2018-01-27T07:43:18.964Z,89.86
2018-01-27T07:44:28.764Z,89.72
2018-01-27T07:45:38.801Z,89.86
2018-01-27T07:46:48.902Z,90.05
2018-01-27T07:47:58.428Z,89.86
2018-01-27T07:49:08.483Z,89.95
2018-01-27T07:50:18.535Z,89.86
2018-01-27T07:51:28.568Z,90.05
2018-01-27T07:52:38.353Z,90.05
2018-01-27T07:53:48.157Z,89.81
2018-01-27T07:54:58.215Z,90.05
2018-01-27T07:56:08.320Z,90.14
2018-01-27T07:57:18.122Z,89.86
2018-01-27T07:58:28.164Z,90.05
2018-01-27T07:59:38.224Z,89.95
2018-01-27T08:00:48.022Z,90.05
2018-01-27T08:01:58.088Z,90.05
2018-01-27T08:03:08.146Z,89.9
2018-01-27T08:04:17.935Z,89.86
2018-01-27T08:05:27.989Z,89.76
2018-01-27T08:06:37.795Z,89.86
2018-01-27T08:07:47.838Z,89.95
2018-01-27T08:08:57.890Z,89.86
2018-01-27T08:10:07.672Z,90.05
2018-01-27T08:11:17.999Z,90.05
2018-01-27T08:12:27.791Z,90.14
2018-01-27T08:13:37.833Z,90.09
2018-01-27T08:14:47.886Z,90.05
2018-01-27T08:15:57.672Z,90.05
2018-01-27T08:17:08.526Z,89.86
2018-01-27T08:18:18.315Z,89.86
2018-01-27T08:19:28.106Z,89.76
2018-01-27T08:20:38.167Z,89.95
2018-01-27T08:21:48.234Z,89.9
2018-01-27T08:22:58.300Z,89.95
2018-01-27T08:24:08.388Z,90.14
2018-01-27T08:25:18.168Z,90.14
2018-01-27T08:26:28.241Z,90.14
2018-01-27T08:27:38.283Z,90.05
2018-01-27T08:28:48.071Z,89.86
2018-01-27T08:29:57.867Z,90.05
2018-01-27T08:31:07.990Z,89.81
2018-01-27T08:32:18.036Z,89.95
2018-01-27T08:33:27.838Z,89.76
2018-01-27T08:34:37.880Z,90.05
2018-01-27T08:35:47.682Z,90
2018-01-27T08:36:57.520Z,89.72
2018-01-27T08:38:07.567Z,89.81
2018-01-27T08:39:17.613Z,89.72
2018-01-27T08:40:27.646Z,90.05
2018-01-27T08:41:37.711Z,90
2018-01-27T08:42:47.539Z,89.86
2018-01-27T08:43:57.593Z,90.05
2018-01-27T08:45:07.633Z,89.57
2018-01-27T08:46:17.478Z,89.67
2018-01-27T08:47:27.383Z,89.67
2018-01-27T08:48:37.426Z,89.19
2018-01-27T08:49:47.472Z,89.38
2018-01-27T08:50:57.823Z,89.28
2018-01-27T08:52:07.901Z,89.28
2018-01-27T08:53:17.932Z,89.19
2018-01-27T08:54:27.737Z,89.19
2018-01-27T08:55:37.801Z,89.28
2018-01-27T08:56:47.849Z,89.47
2018-01-27T08:57:57.946Z,89.47
2018-01-27T08:59:08.001Z,89.47
2018-01-27T09:00:18.114Z,89.38
2018-01-27T09:01:28.183Z,89.38
2018-01-27T09:02:38.245Z,89.38
2018-01-27T09:03:48.308Z,89.28
2018-01-27T09:04:57.845Z,89.19
2018-01-27T09:06:07.384Z,89.47
2018-01-27T09:07:17.432Z,89.47
2018-01-27T09:08:27.489Z,89.57
2018-01-27T09:09:37.552Z,89.38
2018-01-27T09:10:47.581Z,89.67
2018-01-27T09:11:57.626Z,89.09
2018-01-27T09:13:07.686Z,88.9
2018-01-27T09:14:17.756Z,89.09
2018-01-27T09:15:27.819Z,89
2018-01-27T09:16:37.337Z,89.09
2018-01-27T09:17:47.123Z,89.09
2018-01-27T09:18:57.185Z,88.9
2018-01-27T09:20:07.246Z,89.09
2018-01-27T09:21:17.054Z,89.09
2018-01-27T09:22:27.101Z,89
2018-01-27T09:23:37.209Z,89
2018-01-27T09:24:47.252Z,89.09
2018-01-27T09:25:57.054Z,89.19
2018-01-27T09:27:07.115Z,88.43
2018-01-27T09:28:17.176Z,88.81
2018-01-27T09:29:27.275Z,88.85
2018-01-27T09:30:37.334Z,88.85
2018-01-27T09:31:47.449Z,88.28
2018-01-27T09:32:57.295Z,88.38
2018-01-27T09:34:07.071Z,88.38
2018-01-27T09:35:17.121Z,88.28
2018-01-27T09:36:27.172Z,88.28
2018-01-27T09:37:36.972Z,88.47
2018-01-27T09:38:47.040Z,88
2018-01-27T09:39:57.090Z,88
2018-01-27T09:41:07.150Z,88.28
2018-01-27T09:42:17.216Z,88.52
2018-01-27T09:43:27.283Z,88.8
2018-01-27T09:44:37.337Z,88.76
2018-01-27T09:45:47.409Z,88.95
2018-01-27T09:46:57.472Z,88.95
2018-01-27T09:48:07.528Z,89.14
2018-01-27T09:49:17.579Z,88.67
2018-01-27T09:50:27.397Z,88.47
2018-01-27T09:51:37.230Z,88.67
2018-01-27T09:52:48.320Z,88.47
2018-01-27T09:53:58.373Z,89.04
2018-01-27T09:55:08.424Z,88.95
2018-01-27T09:56:18.520Z,88.47
2018-01-27T09:57:29.934Z,88.85
2018-01-27T09:58:39.987Z,88.57
2018-01-27T09:59:50.087Z,88.67
2018-01-27T10:00:59.861Z,88.57
2018-01-27T10:02:09.912Z,88.76
2018-01-27T10:03:19.977Z,88.47
2018-01-27T10:04:29.826Z,88.38
2018-01-27T10:05:39.884Z,88.71
2018-01-27T10:06:49.979Z,88.95
2018-01-27T10:14:56.749Z,88.95
2018-01-27T10:16:06.972Z,88.67
2018-01-27T10:17:16.914Z,88.85
2018-01-27T10:18:26.708Z,88.85
2018-01-27T10:19:36.754Z,88.67
2018-01-27T10:20:46.813Z,88.9
2018-01-27T10:21:56.890Z,88.9
2018-01-27T10:23:07.853Z,88.85
2018-01-27T10:24:17.894Z,88.61
2018-01-27T10:25:27.933Z,88.8
2018-01-27T10:26:38.003Z,88.71
2018-01-27T10:27:48.056Z,88.71
2018-01-27T10:28:58.170Z,89.18
2018-01-27T10:30:08.304Z,88.9
2018-01-27T10:31:18.104Z,88.71
2018-01-27T10:32:28.169Z,88.23
2018-01-27T10:33:38.239Z,88.23
2018-01-27T10:34:48.296Z,88.33
2018-01-27T10:35:58.401Z,88.23
2018-01-27T10:37:08.259Z,88.42
2018-01-27T10:38:18.372Z,88.33
2018-01-27T10:39:28.424Z,88.52
2018-01-27T10:40:38.254Z,88.52
2018-01-27T10:41:48.045Z,87.85
2018-01-27T10:42:58.124Z,88.13
2018-01-27T10:44:08.174Z,87.99
2018-01-27T10:45:17.973Z,88.18
2018-01-27T10:46:29.079Z,88.56
2018-01-27T10:47:39.836Z,88.28
2018-01-27T10:48:49.947Z,88.56
2018-01-27T10:50:00.659Z,88.56
2018-01-27T10:51:11.560Z,88.66
2018-01-27T10:52:21.659Z,88.46
2018-01-27T10:53:31.454Z,88.56
2018-01-27T10:54:41.261Z,88.85
2018-01-27T10:55:51.306Z,88.56
2018-01-27T10:57:01.350Z,88.75
2018-01-27T10:58:11.169Z,88.75
2018-01-27T10:59:21.253Z,89.04
2018-01-27T11:00:31.045Z,89.23
2018-01-27T11:01:41.116Z,88.71
2018-01-27T11:02:50.908Z,88.94
2018-01-27T11:04:00.697Z,88.85
2018-01-27T11:05:10.798Z,89.04
2018-01-27T11:06:20.649Z,89.04
2018-01-27T11:07:30.751Z,89.14
2018-01-27T11:08:40.824Z,89.04
2018-01-27T11:09:50.623Z,88.94
2018-01-27T11:11:00.692Z,89.23
2018-01-27T11:12:10.781Z,88.94
2018-01-27T11:13:22.143Z,89.14
2018-01-27T11:14:31.992Z,88.75
2018-01-27T11:15:42.324Z,89.04
2018-01-27T11:16:52.365Z,88.66
2018-01-27T11:18:02.426Z,88.75
2018-01-27T11:19:12.306Z,88.46
2018-01-27T11:20:22.393Z,88.28
2018-01-27T11:21:32.479Z,88.37
2018-01-27T11:22:42.286Z,88.56
2018-01-27T11:23:52.390Z,88.18
2018-01-27T11:25:02.502Z,88.56
2018-01-27T11:26:12.630Z,88.46
2018-01-27T11:27:22.801Z,88.46
2018-01-27T11:28:32.874Z,88.7
2018-01-27T11:29:42.820Z,88.04
2018-01-27T11:30:52.886Z,88.32
2018-01-27T11:32:02.973Z,88.23
2018-01-27T11:33:13.078Z,88.42
2018-01-27T11:34:23.157Z,88.32
2018-01-27T11:35:33.215Z,88.37
2018-01-27T11:36:43.272Z,88.7
2018-01-27T11:37:53.055Z,88.79
2018-01-27T11:39:02.855Z,89.18
2018-01-27T11:40:12.996Z,88.7
2018-01-27T11:41:23.081Z,88.79
2018-01-27T11:42:32.899Z,88.99
2018-01-27T11:43:44.087Z,88.7
2018-01-27T11:44:54.148Z,88.7
2018-01-27T11:46:04.218Z,88.79
2018-01-27T11:47:14.018Z,88.79
2018-01-27T11:48:24.088Z,88.75
2018-01-27T11:49:34.145Z,88.6
2018-01-27T11:50:43.944Z,88.89
2018-01-27T11:51:54.908Z,88.85
2018-01-27T11:53:06.324Z,88.94
2018-01-27T11:54:16.414Z,89.08
2018-01-27T11:55:26.487Z,89.08
2018-01-27T11:56:36.563Z,89.18
2018-01-27T11:57:46.105Z,88.99
2018-01-27T11:58:56.223Z,89.18
2018-01-27T12:00:06.322Z,89.18
2018-01-27T12:01:16.391Z,88.7
2018-01-27T12:02:26.451Z,89.08
2018-01-27T12:03:36.256Z,88.89
2018-01-27T12:04:46.372Z,88.7
2018-01-27T12:05:56.184Z,89.18
2018-01-27T12:07:06.006Z,89.18
2018-01-27T12:08:16.064Z,88.79
2018-01-27T12:09:27.197Z,88.99
2018-01-27T12:10:37.276Z,88.6
2018-01-27T12:11:47.357Z,88.79
2018-01-27T12:12:57.421Z,88.32
2018-01-27T12:14:07.475Z,88.42
2018-01-27T12:15:17.563Z,88.23
2018-01-27T12:16:27.988Z,88.23
2018-01-27T12:17:38.067Z,87.85
2018-01-27T12:18:48.135Z,88.32
2018-01-27T12:19:58.237Z,88.13
2018-01-27T12:21:08.314Z,88.6
2018-01-27T12:22:18.370Z,88.7
2018-01-27T12:23:28.424Z,88.32
2018-01-27T12:24:38.222Z,88.04
2018-01-27T12:25:48.342Z,88.23
2018-01-27T12:26:59.765Z,88.13
2018-01-27T12:28:09.830Z,88.04
2018-01-27T12:29:19.607Z,88.13
2018-01-27T12:30:29.679Z,88.13
2018-01-27T12:31:39.728Z,88.04
2018-01-27T12:32:49.782Z,88.42
2018-01-27T12:33:59.860Z,88.13
2018-01-27T12:35:09.926Z,88.51
2018-01-27T12:36:20.018Z,88.51
2018-01-27T12:37:30.151Z,88.13
2018-01-27T12:38:40.218Z,87.94
2018-01-27T12:39:50.305Z,88.18
2018-01-27T12:41:00.356Z,88.18
2018-01-27T12:42:10.219Z,88.18
2018-01-27T12:43:21.391Z,87.98
2018-01-27T12:44:31.467Z,87.79
2018-01-27T12:45:41.526Z,87.98
2018-01-27T12:46:51.589Z,87.89
2018-01-27T12:48:01.653Z,87.98
2018-01-27T12:49:11.514Z,87.6
2018-01-27T12:50:21.605Z,87.98
2018-01-27T12:51:31.710Z,87.85
2018-01-27T12:52:41.791Z,88.65
2018-01-27T12:53:51.598Z,88.27
2018-01-27T12:55:01.725Z,88.6
2018-01-27T12:56:11.542Z,88.79
2018-01-27T12:57:21.354Z,88.89
2018-01-27T12:58:32.925Z,88.99
2018-01-27T12:59:42.996Z,88.89
2018-01-27T13:00:52.852Z,89.04
2018-01-27T13:02:02.934Z,89.42
2018-01-27T13:03:13.012Z,89.7
2018-01-27T13:04:23.347Z,89.51
2018-01-27T13:05:33.431Z,89.51
2018-01-27T13:06:43.822Z,89.42
2018-01-27T13:07:53.873Z,89.61
2018-01-27T13:09:03.932Z,89.42
2018-01-27T13:10:14.493Z,89.51
2018-01-27T13:11:24.321Z,89.51
2018-01-27T13:12:34.656Z,89.47
2018-01-27T13:13:44.489Z,89.37
2018-01-27T13:14:54.601Z,89.47
2018-01-27T13:16:04.708Z,89.75
2018-01-27T13:17:15.505Z,89.32
2018-01-27T13:18:26.781Z,89.47
2018-01-27T13:19:37.827Z,88.94
2018-01-27T13:20:47.897Z,89
2018-01-27T13:21:57.964Z,89.32
2018-01-27T13:23:08.434Z,89.32
2018-01-27T13:24:18.504Z,89.14
2018-01-27T13:25:28.572Z,89.18
2018-01-27T13:26:38.669Z,89.28
2018-01-27T13:27:49.289Z,89.56
2018-01-27T13:28:59.393Z,89.75
2018-01-27T13:30:10.604Z,89.66
2018-01-27T13:31:20.428Z,90.04
2018-01-27T13:32:30.506Z,89.56
2018-01-27T13:33:41.704Z,89.66
2018-01-27T13:34:51.767Z,89.37
2018-01-27T13:36:01.848Z,89.66
2018-01-27T13:37:11.920Z,89.28
2018-01-27T13:38:21.731Z,89.66
2018-01-27T13:39:33.539Z,89.56
2018-01-27T13:40:44.434Z,89.37
2018-01-27T13:41:54.622Z,89.75
2018-01-27T13:43:04.657Z,89.28
2018-01-27T13:44:13.934Z,89.75
2018-01-27T13:45:24.354Z,89.75
2018-01-27T13:46:35.633Z,89.56
2018-01-27T13:47:46.933Z,89.75
2018-01-27T13:48:56.730Z,89.56
2018-01-27T13:50:06.792Z,89.47
2018-01-27T13:51:17.085Z,89.66
2018-01-27T13:52:28.732Z,89.75
2018-01-27T13:53:38.913Z,89.75
2018-01-27T13:54:50.023Z,89.66
2018-01-27T13:56:00.129Z,89.75
2018-01-27T13:57:10.197Z,89.85
2018-01-27T13:58:20.053Z,89.85
2018-01-27T13:59:30.195Z,90.04
2018-01-27T14:00:40.249Z,89.66
2018-01-27T14:01:50.360Z,89.66
2018-01-27T14:03:00.759Z,89.56
2018-01-27T14:04:10.831Z,90
2018-01-27T14:05:20.970Z,90.04
2018-01-27T14:06:31.029Z,90
2018-01-27T14:07:40.817Z,90.09
2018-01-27T14:08:51.194Z,89.9
2018-01-27T14:10:01.009Z,90.14
2018-01-27T14:11:11.099Z,89.71
2018-01-27T14:12:21.211Z,89.71
2018-01-27T14:13:31.316Z,89.61
2018-01-27T14:14:41.159Z,89.52
2018-01-27T14:15:51.301Z,90.09
2018-01-27T14:17:01.440Z,90.09
2018-01-27T14:18:11.531Z,90
2018-01-27T14:19:21.347Z,89.9
2018-01-27T14:20:31.396Z,90
2018-01-27T14:21:41.240Z,89.8
2018-01-27T14:22:51.371Z,90.09
2018-01-27T14:24:01.416Z,90.09
2018-01-27T14:25:11.499Z,90.28
2018-01-27T14:26:21.581Z,89.9
2018-01-27T14:27:31.631Z,89.8
2018-01-27T14:28:41.728Z,90.19
2018-01-27T14:29:51.793Z,89.9
2018-01-27T14:31:01.872Z,90.19
2018-01-27T14:32:11.930Z,90.09
2018-01-27T14:33:21.992Z,90
2018-01-27T14:34:32.065Z,89.9
2018-01-27T14:35:42.177Z,90.19
2018-01-27T14:36:51.743Z,90
2018-01-27T14:38:01.819Z,90.09
2018-01-27T14:39:11.599Z,90.19
2018-01-27T14:40:21.707Z,89.9
2018-01-27T14:41:31.548Z,89.9
2018-01-27T14:42:41.355Z,89.9
2018-01-27T14:43:51.417Z,89.71
2018-01-27T14:45:01.218Z,90
2018-01-27T14:46:11.336Z,90
2018-01-27T14:47:21.431Z,89.9
2018-01-27T14:48:31.262Z,89.9
2018-01-27T14:49:40.813Z,89.9
2018-01-27T14:50:50.899Z,89.9
2018-01-27T14:52:01.003Z,90
2018-01-27T14:53:11.167Z,90.19
2018-01-27T14:54:21.215Z,90.09
2018-01-27T14:55:31.291Z,89.9
2018-01-27T14:56:41.095Z,89.71
2018-01-27T14:57:51.226Z,90.09
2018-01-27T14:59:01.338Z,89.71
2018-01-27T15:00:11.173Z,89.71
2018-01-27T15:01:21.258Z,90.09
2018-01-27T15:02:31.314Z,90
2018-01-27T15:03:41.390Z,90.09
2018-01-27T15:04:51.501Z,90
2018-01-27T15:06:01.608Z,90
2018-01-27T15:07:11.685Z,90
2018-01-27T15:08:21.775Z,90.09
2018-01-27T15:09:31.905Z,90.09
2018-01-27T15:10:42.004Z,90
2018-01-27T15:11:52.141Z,89.8
2018-01-27T15:13:01.954Z,89.8
2018-01-27T15:14:12.040Z,90.19
2018-01-27T15:15:21.859Z,90
2018-01-27T15:16:31.952Z,89.9
2018-01-27T15:17:42.054Z,90
2018-01-27T15:18:52.128Z,90
2018-01-27T15:20:03.188Z,90
2018-01-27T15:21:13.299Z,89.8
2018-01-27T15:22:23.429Z,90
2018-01-27T15:23:33.533Z,90
2018-01-27T15:24:43.632Z,90.09
2018-01-27T15:25:53.737Z,89.8
2018-01-27T15:27:03.896Z,89.9
2018-01-27T15:28:13.709Z,89.8
2018-01-27T15:29:23.274Z,89.9
2018-01-27T15:30:34.036Z,89.9
2018-01-27T15:31:45.513Z,90.19
2018-01-27T15:32:55.636Z,90.19
2018-01-27T15:34:05.854Z,90.19
2018-01-27T15:35:15.964Z,89.8
2018-01-27T15:36:26.066Z,90
2018-01-27T15:37:36.163Z,90
2018-01-27T15:38:46.273Z,89.9
2018-01-27T15:39:56.372Z,90.09
2018-01-27T15:41:06.263Z,90
2018-01-27T15:42:16.385Z,90.09
2018-01-27T15:43:26.471Z,89.9
2018-01-27T15:44:36.632Z,89.8
2018-01-27T15:45:46.763Z,89.9
2018-01-27T15:46:56.837Z,89.8
2018-01-27T15:48:06.904Z,89.9
2018-01-27T15:49:16.977Z,89.8